ウラジオストク の空港の天気 - METARとTAF

ウラジオストク空港 ( UHWW / VVO ) - ロシア ウラジオストク
飛行場実況気象(Metar)
観測時間01/23 13:30 VLAT (01/23 03:30 UTC)
風向・風速北 9m/s 瞬間風速14m/s
視程10km以上
天気現象
なし
気温-20℃
湿度34%
気圧1016hPa
METARUHWW 230330Z 01009G14MPS 9999 NSC M20/M32 Q1016 R07R/0///70 NOSIG RMK QFE761
過去の天気等 Google飛行場航空写真 Wunderground天気予報

過去48時間のMETAR

飛行場予報(TAF)
発表時間: 1/23 12:00 VLAT (1/23 02:00 UTC)
予報対象時間: 23日13時 VLAT ~ 24日13時 VLAT
風向・風速北 8m/s
視程10km以上
全天の4割程度の積乱雲 雲底高度 910m
23日13時 VLAT ~ 24日13時 VLAT に一時的に
風向・風速北 12m/s 瞬間風速 17m/s
視程3,100m
天気現象弱いしゅう雪
全天の8割程度の積乱雲 雲底高度 520m
TAF UHWW 230200Z 2303/2403 36008MPS 9999 SCT030CB
TEMPO 2303/2403 01012G17MPS 3100 -SHSN BKN017CB